createdAt,value
2018-07-31T00:00:52.355Z,7.23
2018-07-31T00:03:21.044Z,9.43
2018-07-31T00:05:50.135Z,9.40
2018-07-31T00:08:18.765Z,11.90
2018-07-31T00:10:48.142Z,9.27
2018-07-31T00:13:16.707Z,8.70
2018-07-31T00:15:45.576Z,7.97
2018-07-31T00:18:14.232Z,10.63
2018-07-31T00:20:42.883Z,10.03
2018-07-31T00:23:11.438Z,9.10
2018-07-31T00:25:40.205Z,8.63
2018-07-31T00:28:08.746Z,8.93
2018-07-31T00:30:37.514Z,9.07
2018-07-31T00:33:06.176Z,7.50
2018-07-31T00:35:34.720Z,7.37
2018-07-31T00:38:03.729Z,7.33
2018-07-31T00:40:32.299Z,7.67
2018-07-31T00:43:00.811Z,7.60
2018-07-31T00:45:29.307Z,8.53
2018-07-31T00:47:58.167Z,7.73
2018-07-31T00:50:26.955Z,7.47
2018-07-31T00:52:55.471Z,7.70
2018-07-31T00:55:24.041Z,13.93
2018-07-31T00:57:52.998Z,8.67
2018-07-31T01:00:21.558Z,7.70
2018-07-31T01:02:50.186Z,8.73
2018-07-31T01:05:18.771Z,9.60
2018-07-31T01:07:47.391Z,10.10
2018-07-31T01:10:15.970Z,8.07
2018-07-31T01:12:44.552Z,8.00
2018-07-31T01:15:13.273Z,8.30
2018-07-31T01:17:41.827Z,8.60
2018-07-31T01:20:10.454Z,8.33
2018-07-31T01:22:39.028Z,8.10
2018-07-31T01:25:08.344Z,8.53
2018-07-31T01:27:37.083Z,8.77
2018-07-31T01:30:06.145Z,8.60
2018-07-31T01:32:34.858Z,9.77
2018-07-31T01:35:03.432Z,9.27
2018-07-31T01:37:32.339Z,8.60
2018-07-31T01:40:01.166Z,10.60
2018-07-31T01:42:30.465Z,8.70
2018-07-31T01:44:59.083Z,9.90
2018-07-31T01:47:27.633Z,8.07
2018-07-31T01:49:56.279Z,8.23
2018-07-31T01:52:24.816Z,10.47
2018-07-31T01:54:53.842Z,9.23
2018-07-31T01:57:22.757Z,8.00
2018-07-31T01:59:51.360Z,10.50
2018-07-31T02:02:20.220Z,9.33
2018-07-31T02:04:48.994Z,9.77
2018-07-31T02:07:17.755Z,11.00
2018-07-31T02:09:46.371Z,7.90
2018-07-31T02:12:15.259Z,8.53
2018-07-31T02:14:43.843Z,8.53
2018-07-31T02:17:12.756Z,8.17
2018-07-31T02:19:42.097Z,7.80
2018-07-31T02:22:10.642Z,9.83
2018-07-31T02:24:39.227Z,8.20
2018-07-31T02:27:08.508Z,7.70
2018-07-31T02:29:42.396Z,7.73
2018-07-31T02:32:10.984Z,9.03
2018-07-31T02:34:39.668Z,10.90
2018-07-31T02:37:08.251Z,8.77
2018-07-31T02:39:36.885Z,8.27
2018-07-31T02:42:05.461Z,12.47
2018-07-31T02:44:34.293Z,9.67
2018-07-31T02:47:02.877Z,9.50
2018-07-31T02:49:31.767Z,9.70
2018-07-31T02:52:00.501Z,10.47
2018-07-31T02:54:29.107Z,11.03
2018-07-31T02:56:58.139Z,8.93
2018-07-31T02:59:26.904Z,8.00
2018-07-31T03:01:55.403Z,9.37
2018-07-31T03:04:24.219Z,10.33
2018-07-31T03:06:52.813Z,12.80
2018-07-31T03:09:21.306Z,8.13
2018-07-31T03:11:50.096Z,8.77
2018-07-31T03:14:18.592Z,7.97
2018-07-31T03:16:47.200Z,9.57
2018-07-31T03:19:15.733Z,8.47
2018-07-31T03:21:44.368Z,8.47
2018-07-31T03:24:12.862Z,8.67
2018-07-31T03:26:41.503Z,8.53
2018-07-31T03:29:10.131Z,10.87
2018-07-31T03:31:38.957Z,8.03
2018-07-31T03:34:07.874Z,8.43
2018-07-31T03:36:36.451Z,10.93
2018-07-31T03:39:07.292Z,8.57
2018-07-31T03:41:36.158Z,7.97
2018-07-31T03:44:05.178Z,7.93
2018-07-31T03:46:34.408Z,9.60
2018-07-31T03:49:03.020Z,10.17
2018-07-31T03:51:32.136Z,8.30
2018-07-31T03:54:01.139Z,8.73
2018-07-31T03:56:29.768Z,8.67
2018-07-31T03:58:58.010Z,8.53
2018-07-31T04:01:26.633Z,9.83
2018-07-31T04:03:55.744Z,8.50
2018-07-31T04:06:24.619Z,8.43
2018-07-31T04:08:53.555Z,9.73
2018-07-31T04:11:22.149Z,8.17
2018-07-31T04:13:50.897Z,8.07
2018-07-31T04:16:19.493Z,8.37
2018-07-31T04:18:48.046Z,7.60
2018-07-31T04:21:16.682Z,8.93
2018-07-31T04:23:45.510Z,8.53
2018-07-31T04:26:15.259Z,9.03
2018-07-31T04:28:43.740Z,9.23
2018-07-31T04:31:12.952Z,8.60
2018-07-31T04:33:41.568Z,11.37
2018-07-31T04:36:10.553Z,9.00
2018-07-31T04:38:39.622Z,8.80
2018-07-31T04:41:08.420Z,10.73
2018-07-31T04:43:36.919Z,9.80
2018-07-31T04:46:05.696Z,13.07
2018-07-31T04:48:34.561Z,9.03
2018-07-31T04:51:03.232Z,11.33
2018-07-31T04:53:31.920Z,11.07
2018-07-31T04:56:00.556Z,10.77
2018-07-31T04:58:29.212Z,12.17
2018-07-31T05:00:58.020Z,10.10
2018-07-31T05:03:27.454Z,10.13
2018-07-31T05:05:55.980Z,10.20
2018-07-31T05:08:24.623Z,9.43
2018-07-31T05:10:53.199Z,11.20
2018-07-31T05:13:22.580Z,9.50
2018-07-31T05:15:51.760Z,9.80
2018-07-31T05:18:20.451Z,11.33
2018-07-31T05:20:49.190Z,14.53
2018-07-31T05:23:17.898Z,10.53
2018-07-31T05:25:47.122Z,12.97
2018-07-31T05:28:15.763Z,11.43
2018-07-31T05:30:45.288Z,14.93
2018-07-31T05:33:13.975Z,16.27
2018-07-31T05:35:42.717Z,21.67
2018-07-31T05:38:12.211Z,12.83
2018-07-31T05:40:41.261Z,14.77
2018-07-31T05:43:09.747Z,13.90
2018-07-31T05:45:38.359Z,16.30
2018-07-31T05:48:07.181Z,15.07
2018-07-31T05:50:36.698Z,14.43
2018-07-31T05:53:05.843Z,13.37
2018-07-31T05:55:34.370Z,13.83
2018-07-31T05:58:03.198Z,12.03
2018-07-31T06:00:32.737Z,15.10
2018-07-31T06:03:01.496Z,18.70
2018-07-31T06:05:30.298Z,16.07
2018-07-31T06:07:58.866Z,13.00
2018-07-31T06:10:27.620Z,12.83
2018-07-31T06:12:56.360Z,11.17
2018-07-31T06:15:25.114Z,18.40
2018-07-31T06:17:53.732Z,13.50
2018-07-31T06:20:22.400Z,14.77
2018-07-31T06:22:50.984Z,14.23
2018-07-31T06:25:20.375Z,15.70
2018-07-31T06:27:48.999Z,12.10
2018-07-31T06:30:18.069Z,13.23
2018-07-31T06:32:47.222Z,11.37
2018-07-31T06:35:15.853Z,11.33
2018-07-31T06:37:44.501Z,12.83
2018-07-31T06:40:13.225Z,14.17
2018-07-31T06:42:41.803Z,10.97
2018-07-31T06:45:10.667Z,13.03
2018-07-31T06:47:39.320Z,10.77
2018-07-31T06:50:07.942Z,10.70
2018-07-31T06:52:36.615Z,9.13
2018-07-31T06:55:06.925Z,13.60
2018-07-31T06:57:35.488Z,8.97
2018-07-31T07:00:05.113Z,7.60
2018-07-31T07:02:33.873Z,7.63
2018-07-31T07:05:02.622Z,12.80
2018-07-31T07:07:31.502Z,7.47
2018-07-31T07:10:00.689Z,7.43
2018-07-31T07:12:29.721Z,7.20
2018-07-31T07:14:58.652Z,7.10
2018-07-31T07:17:27.383Z,7.13
2018-07-31T07:19:55.919Z,8.07
2018-07-31T07:22:25.224Z,8.63
2018-07-31T07:24:54.571Z,6.80
2018-07-31T07:27:24.012Z,7.07
2018-07-31T07:29:54.330Z,6.93
2018-07-31T07:32:23.728Z,8.10
2018-07-31T07:34:52.361Z,7.47
2018-07-31T07:37:24.124Z,8.43
2018-07-31T07:39:54.075Z,7.30
2018-07-31T07:42:24.608Z,9.60
2018-07-31T07:44:54.192Z,6.97
2018-07-31T07:47:22.993Z,7.63
2018-07-31T07:49:52.139Z,9.10
2018-07-31T07:52:20.901Z,6.43
2018-07-31T07:54:50.906Z,8.70
2018-07-31T07:57:19.531Z,8.67
2018-07-31T07:59:49.469Z,10.10
2018-07-31T08:02:18.135Z,13.13
2018-07-31T08:04:48.103Z,10.10
2018-07-31T08:07:17.445Z,9.60
2018-07-31T08:09:46.530Z,6.80
2018-07-31T08:12:15.223Z,7.23
2018-07-31T08:14:43.781Z,7.93
2018-07-31T08:17:13.996Z,7.00
2018-07-31T08:19:42.875Z,8.37
2018-07-31T08:22:11.904Z,6.93
2018-07-31T08:24:40.572Z,7.30
2018-07-31T08:27:10.305Z,8.67
2018-07-31T08:29:39.315Z,9.13
2018-07-31T08:32:08.469Z,6.90
2018-07-31T08:34:37.394Z,7.20
2018-07-31T08:37:06.486Z,7.93
2018-07-31T08:39:35.424Z,7.93
2018-07-31T08:42:04.457Z,7.40
2018-07-31T08:44:33.229Z,7.17
2018-07-31T08:47:02.051Z,8.10
2018-07-31T08:49:31.825Z,8.53
2018-07-31T08:52:01.428Z,8.67
2018-07-31T08:54:31.054Z,7.60
2018-07-31T08:57:00.811Z,11.60
2018-07-31T08:59:30.130Z,8.33
2018-07-31T09:01:58.716Z,8.67
2018-07-31T09:04:27.233Z,8.87
2018-07-31T09:06:55.645Z,7.77
2018-07-31T09:09:24.436Z,7.23
2018-07-31T09:11:52.996Z,6.90
2018-07-31T09:14:23.067Z,8.97
2018-07-31T09:16:52.040Z,8.37
2018-07-31T09:19:20.931Z,7.37
2018-07-31T09:21:49.728Z,8.30
2018-07-31T09:24:19.168Z,10.43
2018-07-31T09:26:49.494Z,17.17
2018-07-31T09:29:18.171Z,15.37
2018-07-31T09:31:46.682Z,13.37
2018-07-31T09:34:15.574Z,10.53
2018-07-31T09:36:44.200Z,8.33
2018-07-31T09:39:12.927Z,11.77
2018-07-31T09:41:41.871Z,7.57
2018-07-31T09:44:10.471Z,7.70
2018-07-31T09:46:39.393Z,8.60
2018-07-31T09:49:07.998Z,7.10
2018-07-31T09:51:37.467Z,7.63
2018-07-31T09:54:06.444Z,7.93
2018-07-31T09:56:35.614Z,7.27
2018-07-31T09:59:04.464Z,7.17
2018-07-31T10:01:33.259Z,6.17
2018-07-31T10:04:03.197Z,8.03
2018-07-31T10:06:32.410Z,8.57
2018-07-31T10:09:01.681Z,9.50
2018-07-31T10:11:30.418Z,8.10
2018-07-31T10:13:59.086Z,6.87
2018-07-31T10:16:28.304Z,6.27
2018-07-31T10:18:57.389Z,6.53
2018-07-31T10:21:26.487Z,9.87
2018-07-31T10:23:55.056Z,6.67
2018-07-31T10:26:23.920Z,6.30
2018-07-31T10:28:52.653Z,6.87
2018-07-31T10:31:21.344Z,6.73
2018-07-31T10:33:51.064Z,6.33
2018-07-31T10:36:20.211Z,6.33
2018-07-31T10:38:49.230Z,6.67
2018-07-31T10:41:18.019Z,8.50
2018-07-31T10:43:46.625Z,6.37
2018-07-31T10:46:15.608Z,5.80
2018-07-31T10:48:44.562Z,6.20
2018-07-31T10:51:13.326Z,6.40
2018-07-31T10:53:46.749Z,6.50
2018-07-31T10:56:15.889Z,6.80
2018-07-31T10:58:44.554Z,6.30
2018-07-31T11:01:13.468Z,5.97
2018-07-31T11:03:41.805Z,5.77
2018-07-31T11:06:13.060Z,6.23
2018-07-31T11:08:42.228Z,5.67
2018-07-31T11:11:10.932Z,5.73
2018-07-31T11:13:39.870Z,6.57
2018-07-31T11:16:08.729Z,5.97
2018-07-31T11:18:37.536Z,6.20
2018-07-31T11:21:06.709Z,5.63
2018-07-31T11:23:35.320Z,5.30
2018-07-31T11:26:03.974Z,7.43
2018-07-31T11:28:32.809Z,5.63
2018-07-31T11:31:01.456Z,5.47
2018-07-31T11:33:30.679Z,5.30
2018-07-31T11:36:00.121Z,5.50
2018-07-31T11:38:29.193Z,5.50
2018-07-31T11:40:58.175Z,5.53
2018-07-31T11:43:27.038Z,5.70
2018-07-31T11:45:55.729Z,5.60
2018-07-31T11:48:25.114Z,5.13
2018-07-31T11:50:54.765Z,5.00
2018-07-31T11:53:23.611Z,5.53
2018-07-31T11:55:52.216Z,6.70
2018-07-31T11:58:20.795Z,6.00
2018-07-31T12:00:49.564Z,5.73
2018-07-31T12:03:18.692Z,5.70
2018-07-31T12:05:48.375Z,5.53
2018-07-31T12:08:17.879Z,6.93
2018-07-31T12:10:47.482Z,5.17
2018-07-31T12:13:16.800Z,5.67
2018-07-31T12:15:46.916Z,5.77
2018-07-31T12:18:15.519Z,5.73
2018-07-31T12:20:44.081Z,6.77
2018-07-31T12:23:12.762Z,6.10
2018-07-31T12:25:41.701Z,5.27
2018-07-31T12:28:10.749Z,5.73
2018-07-31T12:30:39.618Z,5.00
2018-07-31T12:33:08.856Z,5.77
2018-07-31T12:35:37.907Z,6.93
2018-07-31T12:38:07.215Z,5.47
2018-07-31T12:40:36.303Z,7.93
2018-07-31T12:43:04.576Z,5.30
2018-07-31T12:45:33.397Z,5.63
2018-07-31T12:48:02.812Z,7.33
2018-07-31T12:50:31.345Z,5.63
2018-07-31T12:53:00.070Z,5.03
2018-07-31T12:55:28.667Z,6.27
2018-07-31T12:57:57.607Z,5.80
2018-07-31T13:00:26.434Z,4.97
2018-07-31T13:02:55.123Z,5.27
2018-07-31T13:05:24.088Z,6.63
2018-07-31T13:07:52.710Z,5.30
2018-07-31T13:10:21.871Z,5.07
2018-07-31T13:12:51.611Z,5.40
2018-07-31T13:15:20.653Z,5.93
2018-07-31T13:17:49.561Z,5.63
2018-07-31T13:20:18.581Z,6.10
2018-07-31T13:22:47.290Z,5.67
2018-07-31T13:25:16.258Z,5.50
2018-07-31T13:27:44.985Z,4.93
2018-07-31T13:30:13.609Z,4.93
2018-07-31T13:32:42.855Z,6.37
2018-07-31T13:35:12.402Z,6.00
2018-07-31T13:37:41.396Z,5.30
2018-07-31T13:40:10.257Z,4.77
2018-07-31T13:42:39.111Z,6.27
2018-07-31T13:45:08.239Z,4.93
2018-07-31T13:47:38.007Z,8.63
2018-07-31T13:50:07.081Z,5.70
2018-07-31T13:52:37.754Z,6.57
2018-07-31T13:55:06.566Z,6.00
2018-07-31T13:57:36.886Z,6.20
2018-07-31T14:00:06.138Z,6.27
2018-07-31T14:02:34.984Z,6.40
2018-07-31T14:05:04.221Z,6.70
2018-07-31T14:07:32.968Z,5.23
2018-07-31T14:10:02.596Z,5.20
2018-07-31T14:12:31.562Z,5.17
2018-07-31T14:15:00.201Z,5.53
2018-07-31T14:17:28.608Z,5.17
2018-07-31T14:19:57.819Z,5.77
2018-07-31T14:22:26.986Z,5.10
2018-07-31T14:24:56.070Z,5.33
2018-07-31T14:27:25.643Z,4.87
2018-07-31T14:29:54.424Z,4.90
2018-07-31T14:32:23.494Z,5.10
2018-07-31T14:34:52.504Z,4.53
2018-07-31T14:37:23.264Z,5.57
2018-07-31T14:39:52.181Z,4.87
2018-07-31T14:42:20.817Z,4.53
2018-07-31T14:44:50.647Z,5.07
2018-07-31T14:47:19.614Z,4.83
2018-07-31T14:49:48.342Z,5.07
2018-07-31T14:52:17.116Z,8.73
2018-07-31T14:54:45.962Z,6.37
2018-07-31T14:57:15.449Z,4.83
2018-07-31T14:59:44.039Z,5.37
2018-07-31T15:02:13.803Z,4.63
2018-07-31T15:04:42.661Z,5.30
2018-07-31T15:07:12.166Z,4.20
2018-07-31T15:09:41.649Z,4.03
2018-07-31T15:12:10.370Z,4.90
2018-07-31T15:14:39.790Z,5.10
2018-07-31T15:17:08.663Z,5.10
2018-07-31T15:19:37.339Z,4.90
2018-07-31T15:22:06.643Z,4.23
2018-07-31T15:24:35.434Z,4.40
2018-07-31T15:27:04.218Z,4.27
2018-07-31T15:29:33.474Z,4.67
2018-07-31T15:32:03.000Z,5.23
2018-07-31T15:34:32.835Z,4.37
2018-07-31T15:37:02.390Z,3.93
2018-07-31T15:39:31.138Z,4.23
2018-07-31T15:42:00.235Z,4.37
2018-07-31T15:44:30.125Z,4.50
2018-07-31T15:46:59.974Z,4.90
2018-07-31T15:49:29.394Z,4.23
2018-07-31T15:51:58.969Z,6.27
2018-07-31T15:54:28.470Z,6.57
2018-07-31T15:56:57.669Z,5.77
2018-07-31T15:59:27.067Z,5.60
2018-07-31T16:01:56.176Z,5.73
2018-07-31T16:04:25.049Z,5.40
2018-07-31T16:06:55.815Z,7.73
2018-07-31T16:09:25.262Z,7.43
2018-07-31T16:11:54.904Z,7.03
2018-07-31T16:14:23.674Z,7.13
2018-07-31T16:16:52.458Z,5.27
2018-07-31T16:19:23.390Z,5.80
2018-07-31T16:21:53.102Z,6.63
2018-07-31T16:24:22.573Z,5.23
2018-07-31T16:26:53.063Z,6.67
2018-07-31T16:29:22.705Z,6.37
2018-07-31T16:31:54.204Z,7.60
2018-07-31T16:34:22.841Z,5.90
2018-07-31T16:36:52.040Z,8.67
2018-07-31T16:39:20.916Z,6.00
2018-07-31T16:41:49.900Z,5.60
2018-07-31T16:44:19.422Z,5.53
2018-07-31T16:46:49.884Z,6.70
2018-07-31T16:49:18.780Z,6.00
2018-07-31T16:51:48.075Z,6.03
2018-07-31T16:54:16.723Z,7.23
2018-07-31T16:56:45.908Z,6.17
2018-07-31T16:59:16.116Z,6.13
2018-07-31T17:01:45.459Z,5.40
2018-07-31T17:04:15.267Z,6.60
2018-07-31T17:06:44.123Z,5.13
2018-07-31T17:09:14.087Z,5.87
2018-07-31T17:11:43.689Z,4.87
2018-07-31T17:14:13.538Z,5.20
2018-07-31T17:16:41.950Z,4.97
2018-07-31T17:19:12.685Z,6.43
2018-07-31T17:21:42.298Z,6.23
2018-07-31T17:24:12.330Z,4.73
2018-07-31T17:26:42.289Z,7.27
2018-07-31T17:29:12.182Z,9.53
2018-07-31T17:31:41.173Z,5.30
2018-07-31T17:34:10.431Z,5.30
2018-07-31T17:36:40.034Z,4.80
2018-07-31T17:39:10.752Z,8.57
2018-07-31T17:41:40.092Z,4.87
2018-07-31T17:44:09.938Z,9.07
2018-07-31T17:46:38.949Z,5.17
2018-07-31T17:49:08.067Z,5.40
2018-07-31T17:51:38.008Z,5.13
2018-07-31T17:54:07.922Z,5.67
2018-07-31T17:56:37.113Z,4.83
2018-07-31T17:59:06.297Z,5.33
2018-07-31T18:01:35.052Z,5.43
2018-07-31T18:04:04.780Z,5.07
2018-07-31T18:06:33.431Z,5.80
2018-07-31T18:09:02.255Z,5.03
2018-07-31T18:11:31.193Z,7.13
2018-07-31T18:14:00.209Z,5.13
2018-07-31T18:16:30.385Z,5.30
2018-07-31T18:18:59.385Z,5.97
2018-07-31T18:21:28.823Z,5.13
2018-07-31T18:23:57.601Z,5.40
2018-07-31T18:26:26.544Z,8.40
2018-07-31T18:28:55.557Z,5.83
2018-07-31T18:31:24.653Z,5.13
2018-07-31T18:33:53.623Z,7.33
2018-07-31T18:36:23.209Z,7.17
2018-07-31T18:38:52.102Z,4.97
2018-07-31T18:41:21.508Z,5.10
2018-07-31T18:43:50.781Z,5.87
2018-07-31T18:46:19.788Z,9.23
2018-07-31T18:48:48.123Z,6.37
2018-07-31T18:51:17.223Z,10.60
2018-07-31T18:53:46.470Z,5.20
2018-07-31T18:56:15.054Z,5.57
2018-07-31T18:58:43.955Z,5.73
2018-07-31T19:01:12.692Z,8.80
2018-07-31T19:03:42.654Z,4.90
2018-07-31T19:06:11.484Z,5.53
2018-07-31T19:08:40.229Z,5.50
2018-07-31T19:11:08.876Z,7.30
2018-07-31T19:13:37.954Z,5.23
2018-07-31T19:16:07.167Z,5.57
2018-07-31T19:18:36.015Z,8.53
2018-07-31T19:21:06.404Z,7.90
2018-07-31T19:23:35.063Z,6.90
2018-07-31T19:26:04.263Z,6.63
2018-07-31T19:28:32.883Z,10.73
2018-07-31T19:31:01.857Z,5.87
2018-07-31T19:33:30.485Z,5.33
2018-07-31T19:35:59.044Z,6.90
2018-07-31T19:38:28.360Z,6.73
2018-07-31T19:40:56.995Z,5.23
2018-07-31T19:43:26.208Z,6.00
2018-07-31T19:45:54.804Z,7.93
2018-07-31T19:48:23.755Z,6.13
2018-07-31T19:50:52.313Z,7.67
2018-07-31T19:53:20.854Z,5.97
2018-07-31T19:55:49.483Z,8.97
2018-07-31T19:58:18.252Z,6.97
2018-07-31T20:00:48.128Z,6.60
2018-07-31T20:03:16.716Z,7.57
2018-07-31T20:05:45.570Z,5.83
2018-07-31T20:08:14.299Z,8.07
2018-07-31T20:10:43.122Z,7.33
2018-07-31T20:13:13.044Z,6.07
2018-07-31T20:15:42.333Z,8.17
2018-07-31T20:18:11.430Z,7.20
2018-07-31T20:20:39.989Z,7.17
2018-07-31T20:23:08.549Z,6.13
2018-07-31T20:25:37.491Z,6.60
2018-07-31T20:28:06.722Z,10.17
2018-07-31T20:30:35.611Z,5.90
2018-07-31T20:33:04.400Z,9.73
2018-07-31T20:35:33.348Z,7.63
2018-07-31T20:38:01.960Z,6.03
2018-07-31T20:40:31.795Z,8.23
2018-07-31T20:43:00.410Z,9.10
2018-07-31T20:45:29.265Z,6.50
2018-07-31T20:47:57.985Z,7.87
2018-07-31T20:50:27.362Z,6.53
2018-07-31T20:52:56.022Z,7.80
2018-07-31T20:55:25.019Z,6.40
2018-07-31T20:57:53.649Z,7.83
2018-07-31T21:00:23.328Z,7.03
2018-07-31T21:02:52.130Z,6.83
2018-07-31T21:05:20.664Z,6.67
2018-07-31T21:07:49.248Z,6.17
2018-07-31T21:10:18.232Z,8.97
2018-07-31T21:12:47.322Z,6.50
2018-07-31T21:15:16.444Z,10.60
2018-07-31T21:17:45.064Z,9.63
2018-07-31T21:20:14.300Z,7.70
2018-07-31T21:22:43.035Z,6.10
2018-07-31T21:25:11.825Z,6.07
2018-07-31T21:27:40.735Z,9.57
2018-07-31T21:30:09.338Z,6.80
2018-07-31T21:32:37.937Z,6.63
2018-07-31T21:35:06.569Z,6.67
2018-07-31T21:37:35.735Z,6.80
2018-07-31T21:40:04.831Z,6.50
2018-07-31T21:42:33.881Z,7.57
2018-07-31T21:45:02.951Z,6.47
2018-07-31T21:47:32.642Z,6.70
2018-07-31T21:50:01.644Z,6.80
2018-07-31T21:52:31.083Z,7.90
2018-07-31T21:55:00.736Z,13.83
2018-07-31T21:57:30.181Z,6.20
2018-07-31T21:59:58.798Z,6.17
2018-07-31T22:02:27.901Z,7.30
2018-07-31T22:04:56.636Z,6.27
2018-07-31T22:07:25.650Z,5.87
2018-07-31T22:09:54.600Z,9.57
2018-07-31T22:12:23.445Z,5.57
2018-07-31T22:14:52.423Z,8.40
2018-07-31T22:17:21.317Z,8.07
2018-07-31T22:19:50.268Z,8.33
2018-07-31T22:22:18.787Z,6.30
2018-07-31T22:24:47.705Z,5.87
2018-07-31T22:27:16.320Z,8.67
2018-07-31T22:29:44.954Z,6.27
2018-07-31T22:32:13.845Z,6.23
2018-07-31T22:34:43.106Z,6.60
2018-07-31T22:37:11.667Z,6.20
2018-07-31T22:39:40.322Z,8.17
2018-07-31T22:42:08.846Z,6.30
2018-07-31T22:44:37.427Z,6.83
2018-07-31T22:47:06.052Z,6.03
2018-07-31T22:49:34.566Z,6.17
2018-07-31T22:52:04.151Z,5.67
2018-07-31T22:54:33.183Z,6.83
2018-07-31T22:57:01.906Z,8.17
2018-07-31T22:59:30.474Z,7.33
2018-07-31T23:01:59.109Z,6.40
2018-07-31T23:04:28.379Z,6.37
2018-07-31T23:06:57.183Z,8.90
2018-07-31T23:09:26.752Z,8.53
2018-07-31T23:11:55.439Z,9.67
2018-07-31T23:14:24.386Z,6.47
2018-07-31T23:16:53.070Z,7.53
2018-07-31T23:19:21.739Z,6.33
2018-07-31T23:21:50.306Z,6.30
2018-07-31T23:24:18.903Z,11.73
2018-07-31T23:26:47.512Z,6.73
2018-07-31T23:29:16.250Z,6.30
2018-07-31T23:31:45.019Z,5.80
2018-07-31T23:34:13.603Z,8.97
2018-07-31T23:36:42.562Z,7.47
2018-07-31T23:39:11.854Z,6.73
2018-07-31T23:41:40.403Z,8.67
2018-07-31T23:44:09.377Z,7.57
2018-07-31T23:46:38.340Z,9.53
2018-07-31T23:49:06.872Z,7.80
2018-07-31T23:51:35.592Z,6.20
2018-07-31T23:54:04.320Z,9.80
2018-07-31T23:56:32.909Z,6.13
2018-07-31T23:59:01.655Z,9.93
